ADDS METAR Data INFO
IDs: Format: Raw Decoded Include TAF

Data at: 2233 UTC 22 Aug 2017

KHSG 222215Z AUTO 05006KT 10SM CLR 30/00 A3015 RMK AO2 T03020003
KHSG 222155Z AUTO 00000KT 10SM CLR 30/00 A3016 RMK AO2 T02960000
KHSG 222135Z AUTO 11005KT 10SM CLR 30/00 A3016 RMK AO2 T02950000
KHSG 222115Z AUTO 03007KT 300V070 10SM CLR 30/00 A3017 RMK AO2 T02981003
KHSG 222055Z AUTO 04008G14KT 10SM CLR 30/00 A3018 RMK AO2 T03040000
KHSG 222035Z AUTO 02004G14KT 10SM CLR 29/00 A3019 RMK AO2 LTG DSNT SW T02910000
KHSG 222015Z AUTO 08006KT 10SM CLR 30/00 A3019 RMK AO2 T02960003
KHSG 221955Z AUTO 05004KT 10SM CLR 29/01 A3020 RMK AO2 T02920014
KHSG 221935Z AUTO 12003KT 10SM CLR 29/02 A3021 RMK AO2 T02870022
KHSG 221915Z AUTO 14004KT 10SM CLR 29/02 A3021 RMK AO2 LTG DSNT S T02850021
KHSG 221855Z AUTO 11003KT 10SM CLR 27/02 A3022 RMK AO2 T02740020
KHSG 221835Z AUTO 15004KT 10SM CLR 27/03 A3022 RMK AO2 T02690026
KHSG 221815Z AUTO 16003KT 10SM CLR 26/02 A3023 RMK AO2 T02640024
KHSG 221755Z AUTO 27005KT 10SM CLR 26/03 A3023 RMK AO2 T02600027 10262 20078
KHSG 221735Z AUTO 13004KT 10SM CLR 26/03 A3024 RMK AO2 T02570028
KHSG 221715Z AUTO 10004KT 10SM CLR 25/03 A3025 RMK AO2 T02500028
KHSG 221655Z AUTO 06003KT 10SM CLR 24/02 A3025 RMK AO2 T02370023
KHSG 221635Z AUTO 04004KT 10SM CLR 23/02 A3025 RMK AO2 T02280017
KHSG 221615Z AUTO 00000KT 10SM CLR 22/01 A3026 RMK AO2 T02180010
KHSG 221555Z AUTO 35003KT 10SM CLR 22/01 A3026 RMK AO2 T02180009
KHSG 221535Z AUTO 01004KT 10SM CLR 21/01 A3026 RMK AO2 T02080011
KHSG 221515Z AUTO 31005KT 10SM CLR 20/01 A3027 RMK AO2 T02000010
KHSG 221455Z AUTO 31003KT 10SM CLR 19/01 A3027 RMK AO2 T01910008
KHSG 221435Z AUTO 30004KT 10SM CLR 18/01 A3027 RMK AO2 T01840009
KHSG 221415Z AUTO 30005KT 10SM CLR 17/02 A3026 RMK AO2 T01660015
KHSG 221355Z AUTO 30004KT 10SM CLR 15/02 A3027 RMK AO2 T01510016
KHSG 221335Z AUTO 30006KT 10SM CLR 13/02 A3026 RMK AO2 T01260019
KHSG 221315Z AUTO 00000KT 10SM CLR 09/03 A3026 RMK AO2 T00850025
KHSG 221255Z AUTO 00000KT 10SM CLR 08/02 A3025 RMK AO2 T00820016
KHSG 221235Z AUTO 00000KT 10SM CLR 08/02 A3025 RMK AO2 T00800020
KHSG 221215Z AUTO 00000KT 10SM CLR 11/02 A3025 RMK AO2 T01060018
KHSG 221155Z AUTO 27005KT 10SM CLR 09/02 A3025 RMK AO2 T00930017 10136 20073
KHSG 221135Z AUTO 26008KT 10SM CLR 09/02 A3024 RMK AO2 T00920016
KHSG 221115Z AUTO 00000KT 10SM CLR 07/03 A3024 RMK AO2 T00730025
KHSG 221055Z AUTO 00000KT 10SM CLR 09/02 A3024 RMK AO2 LTG DSNT SE T00900016
KHSG 221035Z AUTO 00000KT 10SM CLR 07/01 A3024 RMK AO2 T00730006
KHSG 221015Z AUTO 27007KT 10SM CLR 12/02 A3023 RMK AO2 T01160020
KHSG 220955Z AUTO 27011KT 10SM CLR 13/01 A3024 RMK AO2 T01330013
KHSG 220935Z AUTO 27014G17KT 10SM CLR 11/02 A3024 RMK AO2 T01140015
KHSG 220915Z AUTO 26010KT 10SM CLR 11/02 A3024 RMK AO2 T01130015
KHSG 220855Z AUTO 24008G15KT 10SM CLR 11/02 A3024 RMK AO2 T01120015
KHSG 220835Z AUTO 26007G14KT 10SM CLR 12/02 A3024 RMK AO2 T01210016
KHSG 220815Z AUTO 27010G16KT 10SM CLR 09/02 A3024 RMK AO2 T00930015
KHSG 220755Z AUTO 23003KT 10SM CLR 12/02 A3024 RMK AO2 T01200016
KHSG 220735Z AUTO 29004G16KT 10SM CLR 12/01 A3024 RMK AO2 T01200008
KHSG 220715Z AUTO 26013KT 10SM CLR 13/02 A3023 RMK AO2 T01280023
KHSG 220655Z AUTO 26008KT 10SM CLR 11/03 A3024 RMK AO2 T01050025 402740065
KHSG 220635Z AUTO 28007KT 10SM CLR 11/03 A3024 RMK AO2 T01140028
KHSG 220615Z AUTO 27008G16KT 10SM CLR 12/02 A3024 RMK AO2 T01200019
KHSG 220555Z AUTO 28006KT 10SM CLR 13/01 A3025 RMK AO2 T01260012 10263 20117
KHSG 220535Z AUTO 28009KT 10SM CLR 14/00 A3025 RMK AO2 T01441001
KHSG 220515Z AUTO 36005KT 10SM CLR 13/00 A3025 RMK AO2 T01281002
KHSG 220455Z AUTO 30006KT 10SM CLR 13/02 A3024 RMK AO2 T01340020
KHSG 220435Z AUTO 26007KT 10SM CLR 15/01 A3023 RMK AO2 T01480013
KHSG 220415Z AUTO 00000KT 10SM CLR 16/00 A3023 RMK AO2 T01600002
KHSG 220355Z AUTO 31005KT 10SM CLR 18/00 A3023 RMK AO2 T01751005
KHSG 220335Z AUTO 32006KT 10SM CLR 17/00 A3022 RMK AO2 T01731003
KHSG 220315Z AUTO 33006KT 10SM CLR 18/00 A3022 RMK AO2 T01761002
KHSG 220255Z AUTO 33006KT 10SM CLR 17/00 A3021 RMK AO2 T01731002
KHSG 220235Z AUTO 34007KT 10SM CLR 18/00 A3019 RMK AO2 T01781003
KHSG 220215Z AUTO 34005KT 10SM CLR 18/00 A3019 RMK AO2 T01841005
KHSG 220155Z AUTO 36004KT 10SM CLR 19/00 A3018 RMK AO2 T01940000
KHSG 220135Z AUTO 01004KT 10SM CLR 23/00 A3017 RMK AO2 T02250001
KHSG 220115Z AUTO 35003KT 10SM CLR 24/00 A3017 RMK AO2 T02380000
KHSG 220055Z AUTO 02005KT 10SM CLR 25/00 A3016 RMK AO2 T02480003
KHSG 220035Z AUTO 02005KT 10SM CLR 26/00 A3016 RMK AO2 T02550003
KHSG 220015Z AUTO 36005KT 10SM CLR 26/00 A3016 RMK AO2 T02590000
KHSG 212355Z AUTO 36006G15KT 10SM CLR 26/00 A3016 RMK AO2 T02620001 10274 20185
KHSG 212335Z AUTO 36005KT 10SM CLR 26/00 A3016 RMK AO2 T02640001
KHSG 212315Z AUTO 36006KT 10SM CLR 27/00 A3016 RMK AO2 T02710004
KHSG 212255Z AUTO 36005KT 10SM CLR 27/00 A3016 RMK AO2 T02680002
KHSG 212235Z AUTO 36003KT 10SM CLR 27/00 A3016 RMK AO2 T02700001
KHSG 212215Z AUTO 05003KT 10SM CLR 27/01 A3016 RMK AO2 T02690005
KHSG 212155Z AUTO 00000KT 10SM CLR 26/01 A3016 RMK AO2 T02640007
KHSG 212135Z AUTO 03003KT 10SM CLR 26/01 A3016 RMK AO2 T02640006
KHSG 212115Z AUTO 08004KT 10SM CLR 26/01 A3017 RMK AO2 T02620007
KHSG 212055Z AUTO 08006KT 10SM CLR 26/01 A3017 RMK AO2 LTG DSNT S T02610006
KHSG 212035Z AUTO 32003KT 10SM CLR 26/01 A3017 RMK AO2 T02580006
KHSG 212015Z AUTO 34006KT 10SM CLR 26/01 A3018 RMK AO2 T02590007
KHSG 211955Z AUTO 35009KT 340V040 10SM CLR 25/01 A3019 RMK AO2 T02530007
KHSG 211935Z AUTO 06004KT 10SM CLR 25/01 A3019 RMK AO2 T02460006
KHSG 211915Z AUTO 36006KT 10SM CLR 24/01 A3019 RMK AO2 T02420009
KHSG 211855Z AUTO 03005KT 10SM CLR 24/01 A3020 RMK AO2 T02380009
KHSG 211835Z AUTO 00000KT 10SM CLR 23/01 A3019 RMK AO2 T02300010
KHSG 211815Z AUTO 07006KT 10SM CLR 22/01 A3019 RMK AO2 T02160010
KHSG 211755Z AUTO 06004KT 10SM CLR 18/01 A3019 RMK AO2 T01820008 10239 20065
KHSG 211735Z AUTO 05004KT 10SM CLR 19/00 A3019 RMK AO2 T01940003
KHSG 211715Z AUTO 04004KT 10SM CLR 22/01 A3019 RMK AO2 T02200005
KHSG 211655Z AUTO 03005KT 10SM CLR 23/00 A3019 RMK AO2 T02310004
KHSG 211635Z AUTO 01006KT 10SM CLR 23/00 A3019 RMK AO2 T02320002
KHSG 211615Z AUTO 05007KT 10SM CLR 23/00 A3020 RMK AO2 T02300002
KHSG 211555Z AUTO 02007KT 10SM CLR 23/00 A3020 RMK AO2 T02290000
KHSG 211535Z AUTO 34006KT 10SM CLR 22/00 A3020 RMK AO2 T02220000
KHSG 211515Z AUTO 04003KT 10SM CLR 21/00 A3020 RMK AO2 T02100003
KHSG 211455Z AUTO 00000KT 10SM CLR 21/01 A3019 RMK AO2 T02050010
KHSG 211435Z AUTO 30004KT 10SM CLR 19/03 A3019 RMK AO2 T01870029
KHSG 211415Z AUTO 29006KT 10SM CLR 18/02 A3018 RMK AO2 T01800024
KHSG 211355Z AUTO 00000KT 10SM CLR 14/03 A3019 RMK AO2 T01350034
KHSG 211335Z AUTO 23005KT 10SM CLR 14/02 A3018 RMK AO2 T01380023
KHSG 211315Z AUTO 00000KT 10SM CLR 09/03 A3018 RMK AO2 T00890029
KHSG 211255Z AUTO 16003KT 10SM CLR 09/02 A3018 RMK AO2 T00850019
KHSG 211235Z AUTO 00000KT 10SM CLR 10/02 A3017 RMK AO2 T00990017
KHSG 211215Z AUTO 28004KT 10SM CLR 08/01 A3017 RMK AO2 T00750005
KHSG 211155Z AUTO 00000KT 10SM CLR 08/01 A3016 RMK AO2 T00750011 10149 20075
KHSG 211135Z AUTO 00000KT 10SM CLR 10/02 A3015 RMK AO2 T01030015
KHSG 211115Z AUTO 00000KT 10SM CLR 09/01 A3014 RMK AO2 T00870013
KHSG 211055Z AUTO 26012G17KT 10SM CLR 10/02 A3014 RMK AO2 T01020022
KHSG 211035Z AUTO 28005G16KT 10SM CLR 11/03 A3014 RMK AO2 T01120027